sensor_id;sensor_type;location;lat;lon;timestamp;pressure;altitude;pressure_sealevel;temperature;humidity
48089;BME280;33867;50.314;7.802;2022-10-03T00:27:29;101303.47;;;10.47;96.37
48089;BME280;33867;50.314;7.802;2022-10-03T00:31:02;101323.78;;;10.51;95.70
48089;BME280;33867;50.314;7.802;2022-10-03T00:48:57;101326.47;;;10.40;95.82
48089;BME280;33867;50.314;7.802;2022-10-03T01:15:42;101347.06;;;10.52;95.04
48089;BME280;33867;50.314;7.802;2022-10-03T01:26:16;101353.59;;;10.72;96.04
48089;BME280;33867;50.314;7.802;2022-10-03T01:52:19;101349.06;;;10.72;95.11
48089;BME280;33867;50.314;7.802;2022-10-03T01:57:09;101353.94;;;10.56;96.86
48089;BME280;33867;50.314;7.802;2022-10-03T02:00:48;101355.56;;;10.70;95.71
48089;BME280;33867;50.314;7.802;2022-10-03T02:04:17;101344.19;;;10.77;96.61
48089;BME280;33867;50.314;7.802;2022-10-03T02:11:21;101343.63;;;10.50;98.72
48089;BME280;33867;50.314;7.802;2022-10-03T02:14:54;101339.72;;;10.65;96.73
48089;BME280;33867;50.314;7.802;2022-10-03T02:21:49;101337.19;;;10.75;96.69
48089;BME280;33867;50.314;7.802;2022-10-03T02:25:24;101333.59;;;10.63;99.12
48089;BME280;33867;50.314;7.802;2022-10-03T02:36:54;101352.28;;;10.77;97.81
48089;BME280;33867;50.314;7.802;2022-10-03T02:44:57;101356.19;;;10.96;96.79
48089;BME280;33867;50.314;7.802;2022-10-03T03:17:55;101379.59;;;11.06;94.30
48089;BME280;33867;50.314;7.802;2022-10-03T03:25:20;101384.59;;;11.00;95.74
48089;BME280;33867;50.314;7.802;2022-10-03T03:29:07;101378.72;;;11.06;95.38
48089;BME280;33867;50.314;7.802;2022-10-03T03:33:09;101382.03;;;11.09;94.82
48089;BME280;33867;50.314;7.802;2022-10-03T03:40:06;101382.41;;;11.16;94.52
48089;BME280;33867;50.314;7.802;2022-10-03T03:43:48;101389.78;;;11.14;94.43
48089;BME280;33867;50.314;7.802;2022-10-03T03:51:38;101400.31;;;11.17;94.19
48089;BME280;33867;50.314;7.802;2022-10-03T04:02:16;101409.72;;;11.23;94.29
48089;BME280;33867;50.314;7.802;2022-10-03T04:05:42;101405.19;;;11.12;95.49
48089;BME280;33867;50.314;7.802;2022-10-03T04:09:41;101405.94;;;11.25;94.84
48089;BME280;33867;50.314;7.802;2022-10-03T04:16:43;101405.44;;;11.20;94.31
48089;BME280;33867;50.314;7.802;2022-10-03T04:27:53;101413.25;;;11.01;96.63
48089;BME280;33867;50.314;7.802;2022-10-03T04:47:52;101426.53;;;11.15;94.62
48089;BME280;33867;50.314;7.802;2022-10-03T04:51:43;101421.34;;;11.12;94.68
48089;BME280;33867;50.314;7.802;2022-10-03T04:55:20;101427.59;;;11.12;94.46
48089;BME280;33867;50.314;7.802;2022-10-03T04:58:53;101426.75;;;11.12;94.24
48089;BME280;33867;50.314;7.802;2022-10-03T05:09:49;101425.00;;;11.00;94.78
48089;BME280;33867;50.314;7.802;2022-10-03T05:13:42;101424.41;;;10.96;94.62
48089;BME280;33867;50.314;7.802;2022-10-03T05:17:24;101428.81;;;10.97;94.52
48089;BME280;33867;50.314;7.802;2022-10-03T05:20:54;101435.56;;;10.92;94.74
48089;BME280;33867;50.314;7.802;2022-10-03T05:24:35;101440.94;;;10.92;94.90
48089;BME280;33867;50.314;7.802;2022-10-03T05:47:25;101451.00;;;10.54;96.00
48089;BME280;33867;50.314;7.802;2022-10-03T05:59:08;101454.59;;;10.66;95.09
48089;BME280;33867;50.314;7.802;2022-10-03T06:02:52;101461.25;;;10.84;94.82
48089;BME280;33867;50.314;7.802;2022-10-03T06:17:13;101481.28;;;11.04;93.98
48089;BME280;33867;50.314;7.802;2022-10-03T06:40:12;101498.34;;;11.27;93.26
48089;BME280;33867;50.314;7.802;2022-10-03T06:58:28;101499.81;;;11.42;92.42
48089;BME280;33867;50.314;7.802;2022-10-03T07:02:24;101510.88;;;11.62;92.10
48089;BME280;33867;50.314;7.802;2022-10-03T07:06:11;101512.59;;;11.63;92.37
48089;BME280;33867;50.314;7.802;2022-10-03T07:13:59;101507.97;;;11.98;91.49
48089;BME280;33867;50.314;7.802;2022-10-03T07:17:10;101513.97;;;12.02;91.25
48089;BME280;33867;50.314;7.802;2022-10-03T07:47:31;101539.34;;;12.97;87.22
48089;BME280;33867;50.314;7.802;2022-10-03T07:51:11;101545.59;;;12.98;87.14
48089;BME280;33867;50.314;7.802;2022-10-03T08:05:34;101546.50;;;13.40;86.74
48089;BME280;33867;50.314;7.802;2022-10-03T08:12:35;101548.38;;;13.39;85.56
48089;BME280;33867;50.314;7.802;2022-10-03T08:16:09;101554.88;;;13.37;84.40
48089;BME280;33867;50.314;7.802;2022-10-03T08:38:08;101556.47;;;13.91;82.17
48089;BME280;33867;50.314;7.802;2022-10-03T08:56:47;101565.72;;;14.88;77.97
48089;BME280;33867;50.314;7.802;2022-10-03T09:00:20;101565.56;;;14.89;78.22
48089;BME280;33867;50.314;7.802;2022-10-03T09:07:56;101573.28;;;15.23;77.79
48089;BME280;33867;50.314;7.802;2022-10-03T09:26:07;101567.38;;;16.31;71.97
48089;BME280;33867;50.314;7.802;2022-10-03T09:29:49;101573.47;;;16.43;73.53
48089;BME280;33867;50.314;7.802;2022-10-03T09:37:10;101578.25;;;16.58;71.47
48089;BME280;33867;50.314;7.802;2022-10-03T09:41:12;101583.53;;;16.60;72.12
48089;BME280;33867;50.314;7.802;2022-10-03T10:15:39;101543.72;;;17.48;69.23
48089;BME280;33867;50.314;7.802;2022-10-03T10:38:37;101540.06;;;17.13;65.58
48089;BME280;33867;50.314;7.802;2022-10-03T10:42:34;101531.97;;;17.21;68.34
48089;BME280;33867;50.314;7.802;2022-10-03T10:46:32;101527.28;;;17.32;68.20
48089;BME280;33867;50.314;7.802;2022-10-03T10:50:21;101523.22;;;17.36;65.59
48089;BME280;33867;50.314;7.802;2022-10-03T11:06:08;101525.97;;;16.64;67.15
48089;BME280;33867;50.314;7.802;2022-10-03T11:14:02;101525.53;;;16.24;70.36
48089;BME280;33867;50.314;7.802;2022-10-03T11:25:33;101541.00;;;16.23;69.96
48089;BME280;33867;50.314;7.802;2022-10-03T11:37:01;101532.06;;;16.31;70.40
48089;BME280;33867;50.314;7.802;2022-10-03T11:40:30;101527.09;;;16.44;70.30
48089;BME280;33867;50.314;7.802;2022-10-03T11:54:32;101513.41;;;17.17;67.68
48089;BME280;33867;50.314;7.802;2022-10-03T11:58:22;101511.84;;;17.40;65.75
48089;BME280;33867;50.314;7.802;2022-10-03T12:02:11;101504.84;;;17.64;65.80
48089;BME280;33867;50.314;7.802;2022-10-03T12:06:14;101499.00;;;17.76;65.00
48089;BME280;33867;50.314;7.802;2022-10-03T12:17:22;101489.75;;;17.69;65.21
48089;BME280;33867;50.314;7.802;2022-10-03T12:21:02;101489.59;;;17.71;66.70
48089;BME280;33867;50.314;7.802;2022-10-03T12:24:25;101477.50;;;17.73;66.30
48089;BME280;33867;50.314;7.802;2022-10-03T12:28:17;101480.06;;;17.75;65.69
48089;BME280;33867;50.314;7.802;2022-10-03T12:35:39;101477.84;;;18.71;62.50
48089;BME280;33867;50.314;7.802;2022-10-03T12:39:17;101473.22;;;19.12;61.11
48089;BME280;33867;50.314;7.802;2022-10-03T12:46:17;101460.56;;;20.99;57.31
48089;BME280;33867;50.314;7.802;2022-10-03T12:50:05;101455.50;;;20.50;52.00
48089;BME280;33867;50.314;7.802;2022-10-03T12:53:37;101453.22;;;20.77;55.92
48089;BME280;33867;50.314;7.802;2022-10-03T13:00:31;101439.84;;;21.78;53.75
48089;BME280;33867;50.314;7.802;2022-10-03T13:04:19;101440.06;;;21.47;53.70
48089;BME280;33867;50.314;7.802;2022-10-03T13:19:10;101441.97;;;21.62;51.65
48089;BME280;33867;50.314;7.802;2022-10-03T13:22:39;101443.13;;;21.15;50.61
48089;BME280;33867;50.314;7.802;2022-10-03T13:26:11;101450.03;;;20.50;52.07
48089;BME280;33867;50.314;7.802;2022-10-03T13:29:47;101446.06;;;20.22;54.34
48089;BME280;33867;50.314;7.802;2022-10-03T13:33:15;101452.69;;;19.96;55.61
48089;BME280;33867;50.314;7.802;2022-10-03T13:36:39;101439.63;;;19.75;55.40
48089;BME280;33867;50.314;7.802;2022-10-03T13:40:06;101436.78;;;19.61;54.44
48089;BME280;33867;50.314;7.802;2022-10-03T13:43:32;101432.97;;;19.78;54.32
48089;BME280;33867;50.314;7.802;2022-10-03T13:47:05;101432.88;;;19.55;54.32
48089;BME280;33867;50.314;7.802;2022-10-03T13:50:38;101436.16;;;19.34;54.07
48089;BME280;33867;50.314;7.802;2022-10-03T13:54:08;101430.88;;;19.24;56.92
48089;BME280;33867;50.314;7.802;2022-10-03T14:05:24;101434.56;;;19.48;54.67
48089;BME280;33867;50.314;7.802;2022-10-03T14:08:50;101419.25;;;19.86;53.41
48089;BME280;33867;50.314;7.802;2022-10-03T14:16:08;101405.00;;;20.76;52.88
48089;BME280;33867;50.314;7.802;2022-10-03T14:19:39;101409.03;;;20.34;53.79
48089;BME280;33867;50.314;7.802;2022-10-03T14:26:48;101406.25;;;19.88;55.79
48089;BME280;33867;50.314;7.802;2022-10-03T14:30:19;101404.69;;;19.54;55.07
48089;BME280;33867;50.314;7.802;2022-10-03T14:33:47;101407.50;;;20.08;54.12
48089;BME280;33867;50.314;7.802;2022-10-03T14:41:04;101402.94;;;20.55;51.56
48089;BME280;33867;50.314;7.802;2022-10-03T14:44:42;101404.41;;;20.65;52.67
48089;BME280;33867;50.314;7.802;2022-10-03T14:48:06;101411.59;;;20.35;51.08
48089;BME280;33867;50.314;7.802;2022-10-03T14:51:33;101409.81;;;19.66;53.60
48089;BME280;33867;50.314;7.802;2022-10-03T14:55:06;101406.00;;;19.19;54.41
48089;BME280;33867;50.314;7.802;2022-10-03T14:58:36;101399.41;;;18.73;55.51
48089;BME280;33867;50.314;7.802;2022-10-03T15:01:56;101405.84;;;18.48;58.77
48089;BME280;33867;50.314;7.802;2022-10-03T15:05:32;101408.19;;;18.18;60.47
48089;BME280;33867;50.314;7.802;2022-10-03T15:08:56;101404.66;;;17.75;61.26
48089;BME280;33867;50.314;7.802;2022-10-03T15:12:23;101397.00;;;17.45;61.95
48089;BME280;33867;50.314;7.802;2022-10-03T15:15:45;101403.50;;;17.18;61.70
48089;BME280;33867;50.314;7.802;2022-10-03T15:19:16;101394.72;;;16.98;64.24
48089;BME280;33867;50.314;7.802;2022-10-03T15:22:38;101396.16;;;16.84;64.89
48089;BME280;33867;50.314;7.802;2022-10-03T15:26:00;101402.28;;;16.69;65.28
48089;BME280;33867;50.314;7.802;2022-10-03T15:29:22;101404.38;;;16.21;62.98
48089;BME280;33867;50.314;7.802;2022-10-03T15:32:43;101405.47;;;15.93;65.71
48089;BME280;33867;50.314;7.802;2022-10-03T15:36:15;101395.16;;;16.14;64.84
48089;BME280;33867;50.314;7.802;2022-10-03T15:39:39;101394.47;;;16.30;65.23
48089;BME280;33867;50.314;7.802;2022-10-03T15:43:05;101392.59;;;16.13;66.17
48089;BME280;33867;50.314;7.802;2022-10-03T15:46:35;101387.59;;;15.90;64.46
48089;BME280;33867;50.314;7.802;2022-10-03T15:50:14;101379.25;;;16.01;67.35
48089;BME280;33867;50.314;7.802;2022-10-03T15:53:36;101379.06;;;16.21;68.43
48089;BME280;33867;50.314;7.802;2022-10-03T15:57:00;101376.59;;;16.09;69.19
48089;BME280;33867;50.314;7.802;2022-10-03T16:00:30;101372.09;;;16.00;69.61
48089;BME280;33867;50.314;7.802;2022-10-03T16:03:53;101375.84;;;15.72;70.17
48089;BME280;33867;50.314;7.802;2022-10-03T16:07:46;101376.59;;;15.27;69.76
48089;BME280;33867;50.314;7.802;2022-10-03T16:11:17;101371.06;;;15.29;71.27
48089;BME280;33867;50.314;7.802;2022-10-03T16:14:42;101374.88;;;14.99;71.67
48089;BME280;33867;50.314;7.802;2022-10-03T16:21:43;101375.16;;;14.96;74.11
48089;BME280;33867;50.314;7.802;2022-10-03T16:25:30;101371.34;;;14.79;75.02
48089;BME280;33867;50.314;7.802;2022-10-03T16:28:59;101360.53;;;14.69;75.22
48089;BME280;33867;50.314;7.802;2022-10-03T16:32:24;101354.84;;;14.53;76.06
48089;BME280;33867;50.314;7.802;2022-10-03T16:35:48;101354.56;;;14.37;77.01
48089;BME280;33867;50.314;7.802;2022-10-03T16:39:23;101338.59;;;14.14;76.94
48089;BME280;33867;50.314;7.802;2022-10-03T16:42:44;101350.97;;;14.07;77.67
48089;BME280;33867;50.314;7.802;2022-10-03T16:46:12;101345.22;;;13.52;77.96
48089;BME280;33867;50.314;7.802;2022-10-03T16:53:21;101347.84;;;13.33;80.44
48089;BME280;33867;50.314;7.802;2022-10-03T16:56:56;101351.38;;;13.24;80.49
48089;BME280;33867;50.314;7.802;2022-10-03T17:00:22;101355.84;;;13.13;80.11
48089;BME280;33867;50.314;7.802;2022-10-03T17:03:46;101361.69;;;12.57;82.17
48089;BME280;33867;50.314;7.802;2022-10-03T17:10:35;101368.56;;;12.09;83.90
48089;BME280;33867;50.314;7.802;2022-10-03T17:13:58;101366.13;;;12.26;83.25
48089;BME280;33867;50.314;7.802;2022-10-03T17:17:35;101366.75;;;12.19;82.89
48089;BME280;33867;50.314;7.802;2022-10-03T17:21:12;101358.94;;;12.16;83.19
48089;BME280;33867;50.314;7.802;2022-10-03T17:24:41;101357.84;;;12.07;83.24
48089;BME280;33867;50.314;7.802;2022-10-03T17:28:04;101360.13;;;11.91;83.56
48089;BME280;33867;50.314;7.802;2022-10-03T17:31:30;101365.66;;;11.89;84.00
48089;BME280;33867;50.314;7.802;2022-10-03T17:34:58;101376.22;;;11.81;83.02
48089;BME280;33867;50.314;7.802;2022-10-03T17:38:49;101376.03;;;11.51;86.11
48089;BME280;33867;50.314;7.802;2022-10-03T17:42:35;101369.84;;;11.60;84.94
48089;BME280;33867;50.314;7.802;2022-10-03T17:46:05;101367.94;;;11.51;84.91
48089;BME280;33867;50.314;7.802;2022-10-03T17:49:47;101354.94;;;11.45;84.78
48089;BME280;33867;50.314;7.802;2022-10-03T17:53:20;101356.66;;;11.46;84.19
48089;BME280;33867;50.314;7.802;2022-10-03T17:56:44;101361.81;;;11.37;85.08
48089;BME280;33867;50.314;7.802;2022-10-03T18:00:20;101357.91;;;11.19;86.81
48089;BME280;33867;50.314;7.802;2022-10-03T18:03:46;101367.34;;;11.25;85.38
48089;BME280;33867;50.314;7.802;2022-10-03T18:07:17;101360.97;;;11.03;86.31
48089;BME280;33867;50.314;7.802;2022-10-03T18:10:45;101361.97;;;11.02;85.60
48089;BME280;33867;50.314;7.802;2022-10-03T18:18:09;101355.72;;;10.91;86.64
48089;BME280;33867;50.314;7.802;2022-10-03T18:25:23;101359.47;;;10.66;87.87
48089;BME280;33867;50.314;7.802;2022-10-03T18:29:14;101363.34;;;10.62;86.67
48089;BME280;33867;50.314;7.802;2022-10-03T18:32:37;101365.72;;;10.66;87.36
48089;BME280;33867;50.314;7.802;2022-10-03T18:36:00;101361.66;;;10.61;86.94
48089;BME280;33867;50.314;7.802;2022-10-03T18:39:31;101367.53;;;10.54;86.81
48089;BME280;33867;50.314;7.802;2022-10-03T18:42:53;101364.91;;;10.42;87.39
48089;BME280;33867;50.314;7.802;2022-10-03T18:46:23;101380.56;;;10.37;86.79
48089;BME280;33867;50.314;7.802;2022-10-03T18:50:13;101377.25;;;10.33;86.68
48089;BME280;33867;50.314;7.802;2022-10-03T18:53:44;101372.69;;;10.22;88.08
48089;BME280;33867;50.314;7.802;2022-10-03T18:57:38;101360.97;;;10.11;87.88
48089;BME280;33867;50.314;7.802;2022-10-03T19:04:54;101356.41;;;10.00;87.02
48089;BME280;33867;50.314;7.802;2022-10-03T19:08:27;101357.75;;;9.82;88.27
48089;BME280;33867;50.314;7.802;2022-10-03T19:12:15;101359.72;;;9.80;87.65
48089;BME280;33867;50.314;7.802;2022-10-03T19:16:02;101360.69;;;9.79;87.91
48089;BME280;33867;50.314;7.802;2022-10-03T19:23:37;101354.69;;;9.75;88.61
48089;BME280;33867;50.314;7.802;2022-10-03T19:26:59;101359.88;;;9.65;88.21
48089;BME280;33867;50.314;7.802;2022-10-03T19:30:21;101355.47;;;9.64;88.44
48089;BME280;33867;50.314;7.802;2022-10-03T19:33:47;101358.84;;;9.55;88.25
48089;BME280;33867;50.314;7.802;2022-10-03T19:37:15;101347.47;;;9.52;88.00
48089;BME280;33867;50.314;7.802;2022-10-03T19:44:20;101348.25;;;9.41;89.53
48089;BME280;33867;50.314;7.802;2022-10-03T19:47:55;101343.97;;;9.38;89.97
48089;BME280;33867;50.314;7.802;2022-10-03T19:51:19;101335.47;;;9.32;88.78
48089;BME280;33867;50.314;7.802;2022-10-03T19:54:52;101345.94;;;9.24;88.96
48089;BME280;33867;50.314;7.802;2022-10-03T19:58:16;101340.75;;;9.21;88.86
48089;BME280;33867;50.314;7.802;2022-10-03T20:01:57;101344.66;;;9.17;88.91
48089;BME280;33867;50.314;7.802;2022-10-03T20:05:31;101343.25;;;9.11;90.13
48089;BME280;33867;50.314;7.802;2022-10-03T20:12:17;101343.94;;;8.89;89.53
48089;BME280;33867;50.314;7.802;2022-10-03T20:15:42;101350.47;;;8.85;89.89
48089;BME280;33867;50.314;7.802;2022-10-03T20:19:11;101357.69;;;8.72;91.82
48089;BME280;33867;50.314;7.802;2022-10-03T20:22:33;101350.69;;;8.69;91.56
48089;BME280;33867;50.314;7.802;2022-10-03T20:25:58;101354.34;;;8.68;90.44
48089;BME280;33867;50.314;7.802;2022-10-03T20:29:36;101350.25;;;8.63;90.87
48089;BME280;33867;50.314;7.802;2022-10-03T20:32:58;101356.06;;;8.44;93.43
48089;BME280;33867;50.314;7.802;2022-10-03T20:36:23;101356.41;;;8.25;94.72
48089;BME280;33867;50.314;7.802;2022-10-03T20:39:44;101366.22;;;8.39;92.46
48089;BME280;33867;50.314;7.802;2022-10-03T20:46:50;101358.00;;;8.55;91.17
48089;BME280;33867;50.314;7.802;2022-10-03T20:53:40;101359.06;;;8.52;90.31
48089;BME280;33867;50.314;7.802;2022-10-03T20:57:22;101361.53;;;8.42;90.49
48089;BME280;33867;50.314;7.802;2022-10-03T21:00:53;101352.75;;;8.26;92.71
48089;BME280;33867;50.314;7.802;2022-10-03T21:04:24;101347.56;;;8.37;91.59
48089;BME280;33867;50.314;7.802;2022-10-03T21:08:09;101352.69;;;8.40;90.52
48089;BME280;33867;50.314;7.802;2022-10-03T21:11:36;101352.63;;;8.55;90.33
48089;BME280;33867;50.314;7.802;2022-10-03T21:18:45;101355.50;;;8.52;90.20
48089;BME280;33867;50.314;7.802;2022-10-03T21:22:08;101347.47;;;8.52;90.21
48089;BME280;33867;50.314;7.802;2022-10-03T21:25:35;101346.31;;;8.56;90.34
48089;BME280;33867;50.314;7.802;2022-10-03T21:29:15;101358.53;;;8.60;89.89
48089;BME280;33867;50.314;7.802;2022-10-03T21:36:16;101346.94;;;8.72;90.14
48089;BME280;33867;50.314;7.802;2022-10-03T21:39:54;101335.00;;;8.76;90.49
48089;BME280;33867;50.314;7.802;2022-10-03T21:50:26;101333.00;;;8.54;93.15
48089;BME280;33867;50.314;7.802;2022-10-03T22:04:23;101337.38;;;8.81;91.65
48089;BME280;33867;50.314;7.802;2022-10-03T22:07:44;101329.09;;;8.84;91.64
48089;BME280;33867;50.314;7.802;2022-10-03T22:14:56;101322.66;;;8.86;91.19
48089;BME280;33867;50.314;7.802;2022-10-03T22:18:20;101314.59;;;8.86;91.00
48089;BME280;33867;50.314;7.802;2022-10-03T22:21:59;101320.63;;;8.90;90.76
48089;BME280;33867;50.314;7.802;2022-10-03T22:25:46;101313.53;;;8.76;90.41
48089;BME280;33867;50.314;7.802;2022-10-03T22:32:46;101313.53;;;8.89;89.78
48089;BME280;33867;50.314;7.802;2022-10-03T22:36:10;101308.38;;;8.86;90.69
48089;BME280;33867;50.314;7.802;2022-10-03T22:39:33;101311.81;;;8.75;91.12
48089;BME280;33867;50.314;7.802;2022-10-03T22:42:57;101305.28;;;8.79;90.58
48089;BME280;33867;50.314;7.802;2022-10-03T22:46:21;101306.25;;;8.78;90.29
48089;BME280;33867;50.314;7.802;2022-10-03T22:49:45;101304.50;;;8.90;90.12
48089;BME280;33867;50.314;7.802;2022-10-03T22:53:07;101299.03;;;8.78;90.52
48089;BME280;33867;50.314;7.802;2022-10-03T22:56:33;101294.81;;;8.87;90.52
48089;BME280;33867;50.314;7.802;2022-10-03T22:59:59;101295.47;;;8.91;90.47
48089;BME280;33867;50.314;7.802;2022-10-03T23:03:26;101275.47;;;8.95;90.36
48089;BME280;33867;50.314;7.802;2022-10-03T23:10:47;101266.66;;;9.05;89.94
48089;BME280;33867;50.314;7.802;2022-10-03T23:14:16;101261.72;;;8.99;90.21
48089;BME280;33867;50.314;7.802;2022-10-03T23:21:04;101247.69;;;8.83;90.58
48089;BME280;33867;50.314;7.802;2022-10-03T23:42:09;101246.00;;;8.69;91.00
48089;BME280;33867;50.314;7.802;2022-10-03T23:45:33;101253.84;;;8.60;91.16
48089;BME280;33867;50.314;7.802;2022-10-03T23:48:55;101262.88;;;8.59;91.74
48089;BME280;33867;50.314;7.802;2022-10-03T23:52:23;101260.28;;;8.57;91.73
48089;BME280;33867;50.314;7.802;2022-10-03T23:55:43;101265.13;;;8.65;91.11
